Time;durP1;ratioP1;P1;durP2;ratioP2;P2;SDS_P1;SDS_P2;PMS_P1;PMS_P2;Temp;Humidity;BMP_temperature;BMP_pressure;BME280_temperature;BME280_humidity;BME280_pressure;Samples;Min_cycle;Max_cycle;Signal;HPM_P1;HPM_P2
2024/04/16 00:00:26;;;;;;;;;;;;;;;22.94;37.96;98839.66;5447018;26;19930;-80
2024/04/16 00:02:52;;;;;;;;;;;;;;;22.84;37.21;98834.31;5419042;26;19940;-79
2024/04/16 00:05:17;;;;;;;;;;;;;;;22.78;37.58;98830.78;5416823;26;19974;-80
2024/04/16 00:07:42;;;;;;;;;;;;;;;22.77;37.77;98828.38;5417192;26;19975;-78
2024/04/16 00:10:07;;;;;;;;;;;;;;;22.75;38.48;98827.84;5416833;26;19929;-80
2024/04/16 00:12:33;;;;;;;;;;;;;;;22.71;38.41;98837.53;5416759;26;19928;-78
2024/04/16 00:14:58;;;;;;;;;;;;;;;22.63;39.15;98833.53;5419063;26;19998;-81
2024/04/16 00:17:27;;;;;;;;;;;;;;;22.57;38.15;98831.94;5418668;26;19933;-79
2024/04/16 00:19:53;;;;;;;;;;;;;;;22.54;38.10;98831.69;5416950;26;19998;-79
2024/04/16 00:22:18;;;;;;;;;;;;;;;22.51;39.45;98824.97;5419031;26;19929;-80
2024/04/16 00:24:43;;;;;;;;;;;;;;;22.46;39.57;98822.28;5418493;26;19939;-80
2024/04/16 00:27:08;;;;;;;;;;;;;;;22.43;39.91;98825.53;5446595;26;19936;-80
2024/04/16 00:29:34;;;;;;;;;;;;;;;22.44;38.70;98827.13;5416649;26;19929;-80
2024/04/16 00:31:59;;;;;;;;;;;;;;;22.42;38.86;98823.91;5416558;26;20251;-80
2024/04/16 00:34:24;;;;;;;;;;;;;;;22.40;38.96;98824.19;5416793;26;19998;-78
2024/04/16 00:36:49;;;;;;;;;;;;;;;22.37;38.96;98815.84;5418675;26;19936;-80
2024/04/16 00:39:15;;;;;;;;;;;;;;;22.34;39.47;98817.19;5418632;26;19998;-80
2024/04/16 00:41:40;;;;;;;;;;;;;;;22.34;38.20;98813.72;5447025;26;19959;-79
2024/04/16 00:44:05;;;;;;;;;;;;;;;22.31;38.80;98820.44;5415724;26;20366;-79
2024/04/16 00:46:31;;;;;;;;;;;;;;;22.29;39.55;98819.06;5416918;26;19929;-79
2024/04/16 00:48:56;;;;;;;;;;;;;;;22.25;40.36;98826.88;5418256;26;20370;-80
2024/04/16 00:51:22;;;;;;;;;;;;;;;22.22;39.62;98824.72;5446709;26;19935;-78
2024/04/16 00:53:47;;;;;;;;;;;;;;;22.21;38.70;98825.81;5418061;26;19929;-80
2024/04/16 00:56:12;;;;;;;;;;;;;;;22.17;39.95;98830.91;5418562;26;20268;-79
2024/04/16 00:58:39;;;;;;;;;;;;;;;22.13;40.58;98821.78;5416598;26;19929;-80
2024/04/16 01:01:05;;;;;;;;;;;;;;;22.10;40.29;98825.00;5417891;26;19928;-80
2024/04/16 01:03:30;;;;;;;;;;;;;;;22.06;39.96;98823.94;5415931;26;19936;-79
2024/04/16 01:05:55;;;;;;;;;;;;;;;22.07;38.90;98812.13;5416222;26;20320;-80
2024/04/16 01:08:20;;;;;;;;;;;;;;;22.02;39.51;98811.28;5417901;26;19929;-78
2024/04/16 01:10:46;;;;;;;;;;;;;;;21.96;41.11;98806.97;5417889;26;19937;-80
2024/04/16 01:13:11;;;;;;;;;;;;;;;21.88;40.95;98806.44;5445860;26;19970;-79
2024/04/16 01:15:37;;;;;;;;;;;;;;;21.82;40.15;98809.41;5418043;26;19936;-80
2024/04/16 01:18:03;;;;;;;;;;;;;;;21.82;41.10;98812.09;5417471;26;19935;-80
2024/04/16 01:20:29;;;;;;;;;;;;;;;21.79;40.88;98818.81;5417538;26;20283;-80
2024/04/16 01:22:54;;;;;;;;;;;;;;;21.76;41.11;98813.97;5417741;26;19929;-80
2024/04/16 01:25:19;;;;;;;;;;;;;;;21.72;40.76;98812.91;5446098;26;19929;-80
2024/04/16 01:27:44;;;;;;;;;;;;;;;21.68;41.22;98811.81;5417750;26;20362;-78
2024/04/16 01:30:10;;;;;;;;;;;;;;;21.66;40.93;98813.97;5417632;26;19929;-80
2024/04/16 01:32:35;;;;;;;;;;;;;;;21.69;41.29;98820.69;5418058;26;19937;-80
2024/04/16 01:35:01;;;;;;;;;;;;;;;21.68;41.25;98821.78;5415885;26;19940;-80
2024/04/16 01:37:26;;;;;;;;;;;;;;;21.67;41.59;98820.16;5417731;26;19930;-80
2024/04/16 01:39:51;;;;;;;;;;;;;;;21.66;41.08;98816.66;5417615;26;19929;-80
2024/04/16 01:42:17;;;;;;;;;;;;;;;21.63;41.22;98816.38;5417324;26;19929;-81
2024/04/16 01:44:45;;;;;;;;;;;;;;;21.62;41.22;98809.41;5417413;26;19998;-80
2024/04/16 01:47:11;;;;;;;;;;;;;;;21.63;40.52;98800.28;5417532;26;19937;-79
2024/04/16 01:49:36;;;;;;;;;;;;;;;21.57;40.64;98796.78;5417312;26;19936;-79
2024/04/16 01:52:01;;;;;;;;;;;;;;;21.57;40.78;98791.41;5417725;26;20324;-79
2024/04/16 01:54:26;;;;;;;;;;;;;;;21.62;40.14;98785.22;5417594;26;19936;-80
2024/04/16 01:56:52;;;;;;;;;;;;;;;21.61;40.71;98789.00;5420615;26;20377;-79
2024/04/16 01:59:17;;;;;;;;;;;;;;;21.60;40.63;98803.50;5420509;26;19929;-80
2024/04/16 02:01:42;;;;;;;;;;;;;;;21.60;39.95;98793.56;5420924;26;19936;-80
2024/04/16 02:04:08;;;;;;;;;;;;;;;21.54;40.63;98802.66;5420708;26;20005;-80
2024/04/16 02:06:33;;;;;;;;;;;;;;;21.55;40.12;98807.78;5420576;26;19937;-79
2024/04/16 02:08:59;;;;;;;;;;;;;;;21.51;40.65;98795.94;5420776;26;20036;-80
2024/04/16 02:11:24;;;;;;;;;;;;;;;21.57;40.23;98804.84;5421274;26;19929;-80
2024/04/16 02:13:49;;;;;;;;;;;;;;;21.60;40.76;98803.50;5418955;26;19929;-80
2024/04/16 02:16:14;;;;;;;;;;;;;;;21.61;40.14;98803.22;5418376;26;19936;-80
2024/04/16 02:18:40;;;;;;;;;;;;;;;21.62;40.40;98794.09;5418547;26;19935;-80
2024/04/16 02:21:05;;;;;;;;;;;;;;;21.64;39.45;98793.81;5420456;26;19929;-80
2024/04/16 02:23:30;;;;;;;;;;;;;;;21.58;40.47;98794.91;5420135;26;20002;-81
2024/04/16 02:25:57;;;;;;;;;;;;;;;21.53;40.46;98785.72;5420417;26;19929;-80
2024/04/16 02:28:22;;;;;;;;;;;;;;;21.47;39.96;98776.06;5418516;26;19929;-80
2024/04/16 02:30:47;;;;;;;;;;;;;;;21.45;39.94;98766.66;5420288;26;20416;-80
2024/04/16 02:33:16;;;;;;;;;;;;;;;21.45;39.30;98764.78;5420237;26;19929;-81
2024/04/16 02:35:41;;;;;;;;;;;;;;;21.51;39.59;98779.81;5420406;26;20371;-80
2024/04/16 02:38:06;;;;;;;;;;;;;;;21.51;39.51;98777.13;5418383;26;19979;-80
2024/04/16 02:40:31;;;;;;;;;;;;;;;21.51;39.26;98779.00;5420437;26;20026;-78
2024/04/16 02:42:57;;;;;;;;;;;;;;;21.53;39.95;98783.03;5420109;26;19929;-81
2024/04/16 02:45:22;;;;;;;;;;;;;;;21.55;39.74;98777.41;5419929;26;19929;-80
2024/04/16 02:47:47;;;;;;;;;;;;;;;21.57;39.48;98777.97;5418276;26;19940;-80
2024/04/16 02:50:13;;;;;;;;;;;;;;;21.57;39.35;98780.66;5420254;26;19929;-80
2024/04/16 02:52:38;;;;;;;;;;;;;;;21.49;39.45;98776.59;5418318;26;19997;-80
2024/04/16 02:55:04;;;;;;;;;;;;;;;21.46;39.35;98776.31;5419988;26;19948;-80
2024/04/16 02:57:30;;;;;;;;;;;;;;;21.44;39.88;98775.78;5420206;26;20372;-79
2024/04/16 02:59:55;;;;;;;;;;;;;;;21.39;39.32;98779.28;5418149;26;19961;-79
2024/04/16 03:02:20;;;;;;;;;;;;;;;21.35;39.24;98788.94;5417771;26;19929;-79
2024/04/16 03:04:46;;;;;;;;;;;;;;;21.31;39.62;98785.16;5417700;26;19929;-81
2024/04/16 03:07:11;;;;;;;;;;;;;;;21.28;40.01;98784.91;5417457;26;19929;-81
2024/04/16 03:09:36;;;;;;;;;;;;;;;21.23;40.48;98788.38;5417936;26;20362;-81
2024/04/16 03:12:02;;;;;;;;;;;;;;;21.22;40.05;98795.63;5419532;26;19929;-79
2024/04/16 03:14:27;;;;;;;;;;;;;;;21.23;40.21;98799.13;5447603;26;19941;-81
2024/04/16 03:16:52;;;;;;;;;;;;;;;21.23;39.91;98793.75;5419183;26;19998;-79
2024/04/16 03:19:17;;;;;;;;;;;;;;;21.19;40.40;98789.94;5419327;26;19944;-80
2024/04/16 03:21:43;;;;;;;;;;;;;;;21.15;40.82;98794.25;5417340;26;20019;-80
2024/04/16 03:24:09;;;;;;;;;;;;;;;21.15;40.05;98794.25;5419092;26;20385;-80
2024/04/16 03:26:34;;;;;;;;;;;;;;;21.12;40.06;98792.88;5419063;26;19928;-80
2024/04/16 03:28:59;;;;;;;;;;;;;;;21.10;40.72;98791.53;5418967;26;19929;-80
2024/04/16 03:31:24;;;;;;;;;;;;;;;21.08;40.42;98793.69;5417566;26;20271;-80
2024/04/16 03:33:49;;;;;;;;;;;;;;;21.11;40.06;98798.53;5419284;26;19975;-80
2024/04/16 03:36:15;;;;;;;;;;;;;;;21.14;40.17;98816.78;5447085;26;19956;-80
2024/04/16 03:38:40;;;;;;;;;;;;;;;21.10;40.64;98805.78;5417163;26;19941;-80
2024/04/16 03:41:05;;;;;;;;;;;;;;;21.07;41.19;98806.31;5417394;26;19939;-80
2024/04/16 03:43:31;;;;;;;;;;;;;;;21.03;40.96;98812.47;5419157;26;19936;-80
2024/04/16 03:45:57;;;;;;;;;;;;;;;20.99;41.81;98814.06;5419150;26;19933;-80
2024/04/16 03:48:23;;;;;;;;;;;;;;;20.95;41.46;98816.47;5419104;26;19936;-79
2024/04/16 03:50:48;;;;;;;;;;;;;;;20.97;41.59;98825.06;5447450;26;20274;-80
2024/04/16 03:53:14;;;;;;;;;;;;;;;20.98;42.16;98823.19;5417342;26;19979;-79
2024/04/16 03:55:39;;;;;;;;;;;;;;;21.00;41.75;98835.25;5419325;26;19998;-79
2024/04/16 03:58:04;;;;;;;;;;;;;;;21.00;41.15;98837.13;5417310;26;19937;-79
2024/04/16 04:03:16;;;;;;;;;;;;;;;21.06;42.02;98838.78;5419253;26;19936;-79
2024/04/16 04:05:44;;;;;;;;;;;;;;;21.06;40.69;98839.56;5446879;26;19941;-80
2024/04/16 04:08:10;;;;;;;;;;;;;;;21.05;41.62;98842.53;5418988;26;19994;-80
2024/04/16 04:10:35;;;;;;;;;;;;;;;21.05;41.25;98850.56;5418480;26;19937;-80
2024/04/16 04:13:00;;;;;;;;;;;;;;;21.03;42.20;98861.56;5446818;26;19939;-80
2024/04/16 04:15:26;;;;;;;;;;;;;;;20.97;42.79;98859.13;5418667;26;19974;-80
2024/04/16 04:17:51;;;;;;;;;;;;;;;20.88;42.12;98865.00;5445585;26;19932;-79
2024/04/16 04:20:16;;;;;;;;;;;;;;;20.87;42.48;98871.44;5419148;26;20270;-80
2024/04/16 04:22:42;;;;;;;;;;;;;;;20.91;41.18;98869.84;5419095;26;20063;-80
2024/04/16 04:25:07;;;;;;;;;;;;;;;20.90;42.64;98878.16;5418558;26;19955;-80
2024/04/16 04:27:32;;;;;;;;;;;;;;;20.93;41.92;98881.13;5418932;26;19929;-79
2024/04/16 04:29:57;;;;;;;;;;;;;;;20.99;41.86;98881.97;5416764;26;19933;-80
2024/04/16 04:32:23;;;;;;;;;;;;;;;21.03;41.35;98875.00;5446976;26;19936;-79
2024/04/16 04:34:49;;;;;;;;;;;;;;;21.02;41.70;98873.38;5418734;26;19975;-81
2024/04/16 04:37:14;;;;;;;;;;;;;;;21.03;42.40;98884.94;5418593;26;19929;-78
2024/04/16 04:39:39;;;;;;;;;;;;;;;20.99;42.40;98881.16;5418961;26;20299;-80
2024/04/16 04:42:04;;;;;;;;;;;;;;;21.01;42.01;98885.19;5418387;26;19936;-80
2024/04/16 04:44:30;;;;;;;;;;;;;;;21.06;41.84;98879.03;5418423;26;20296;-80
2024/04/16 04:46:55;;;;;;;;;;;;;;;21.11;41.72;98873.69;5418478;26;19965;-80
2024/04/16 04:49:20;;;;;;;;;;;;;;;21.14;41.75;98883.91;5418456;26;19935;-80
2024/04/16 04:51:45;;;;;;;;;;;;;;;21.18;41.39;98872.38;5418231;26;20367;-80
2024/04/16 04:54:11;;;;;;;;;;;;;;;21.21;41.10;98871.84;5418757;26;19937;-78
2024/04/16 04:56:36;;;;;;;;;;;;;;;21.21;42.10;98873.72;5416369;26;20261;-79
2024/04/16 04:59:01;;;;;;;;;;;;;;;21.25;41.80;98869.47;5418106;26;19933;-79
2024/04/16 05:01:27;;;;;;;;;;;;;;;21.30;41.26;98866.00;5418670;26;19929;-81
2024/04/16 05:03:52;;;;;;;;;;;;;;;21.30;41.96;98861.44;5416423;26;19933;-79
2024/04/16 05:06:17;;;;;;;;;;;;;;;21.29;41.75;98872.44;5417436;26;19929;-80
2024/04/16 05:08:42;;;;;;;;;;;;;;;21.26;42.76;98865.72;5418034;26;19933;-80
2024/04/16 05:11:08;;;;;;;;;;;;;;;21.24;41.40;98875.91;5417704;26;19929;-81
2024/04/16 05:13:33;;;;;;;;;;;;;;;21.20;41.80;98872.09;5417542;26;19929;-80
2024/04/16 05:15:58;;;;;;;;;;;;;;;21.20;41.78;98874.78;5445913;26;20343;-81
2024/04/16 05:18:23;;;;;;;;;;;;;;;21.22;41.22;98868.13;5417940;26;19929;-80
2024/04/16 05:20:49;;;;;;;;;;;;;;;21.29;41.57;98862.50;5417784;26;19929;-79
2024/04/16 05:23:14;;;;;;;;;;;;;;;21.34;41.82;98857.13;5417729;26;19929;-81
2024/04/16 05:25:39;;;;;;;;;;;;;;;21.40;41.26;98858.75;5415917;26;19929;-80
2024/04/16 05:28:05;;;;;;;;;;;;;;;21.47;41.07;98856.63;5418052;26;19933;-81
2024/04/16 05:30:30;;;;;;;;;;;;;;;21.57;41.00;98855.88;5419000;26;19975;-81
2024/04/16 05:32:55;;;;;;;;;;;;;;;21.64;40.45;98847.56;5420871;26;20419;-80
2024/04/16 05:35:21;;;;;;;;;;;;;;;21.74;40.67;98836.81;5419236;26;19936;-79
2024/04/16 05:37:46;;;;;;;;;;;;;;;21.84;40.73;98852.94;5449358;26;19929;-81
2024/04/16 05:40:11;;;;;;;;;;;;;;;21.97;41.06;98856.97;5420856;26;19937;-79
2024/04/16 05:42:37;;;;;;;;;;;;;;;22.06;40.59;98861.56;5420943;26;19929;-80
2024/04/16 05:45:02;;;;;;;;;;;;;;;22.13;40.74;98851.34;5420710;26;20263;-80
2024/04/16 05:47:27;;;;;;;;;;;;;;;22.23;41.06;98853.22;5449189;26;19929;-80
2024/04/16 05:49:53;;;;;;;;;;;;;;;22.34;40.97;98846.78;5448843;26;20268;-79
2024/04/16 05:52:18;;;;;;;;;;;;;;;22.43;40.46;98855.91;5418808;26;19936;-80
2024/04/16 05:54:43;;;;;;;;;;;;;;;22.54;40.87;98856.69;5448639;26;19929;-79
2024/04/16 05:57:09;;;;;;;;;;;;;;;22.61;40.42;98862.59;5420623;26;19935;-80
2024/04/16 05:59:34;;;;;;;;;;;;;;;22.68;41.05;98868.50;5448060;26;19953;-80
2024/04/16 06:01:59;;;;;;;;;;;;;;;22.77;40.39;98855.28;5404680;26;19929;-80
2024/04/16 06:04:25;;;;;;;;;;;;;;;22.92;40.04;98855.25;5420094;26;20286;-80
2024/04/16 06:06:51;;;;;;;;;;;;;;;23.03;40.17;98864.09;5420119;26;19940;-80
2024/04/16 06:09:16;;;;;;;;;;;;;;;23.11;39.86;98861.69;5420480;26;19950;-80
2024/04/16 06:11:41;;;;;;;;;;;;;;;23.13;39.57;98856.00;5448435;26;19929;-79
2024/04/16 06:14:07;;;;;;;;;;;;;;;23.15;39.31;98861.94;5420305;26;19933;-79
2024/04/16 06:16:32;;;;;;;;;;;;;;;23.20;39.57;98859.22;5446717;26;19998;-78
2024/04/16 06:18:57;;;;;;;;;;;;;;;23.23;39.79;98866.75;5417743;26;19929;-80
2024/04/16 06:21:22;;;;;;;;;;;;;;;23.24;40.13;98864.84;5419814;26;19998;-79
2024/04/16 06:23:49;;;;;;;;;;;;;;;23.34;39.94;98870.19;5417962;26;19929;-80
2024/04/16 06:26:14;;;;;;;;;;;;;;;23.45;39.26;98871.72;5414373;26;19936;-79
2024/04/16 06:28:40;;;;;;;;;;;;;;;23.54;39.56;98870.06;5384769;26;19938;-80
2024/04/16 06:31:05;;;;;;;;;;;;;;;23.65;39.79;98882.41;5386485;26;20360;-78
2024/04/16 06:33:33;;;;;;;;;;;;;;;23.75;39.58;98881.53;5382676;26;19930;-80
2024/04/16 06:35:58;;;;;;;;;;;;;;;23.77;38.62;98885.56;5384120;26;19967;-80
2024/04/16 06:38:25;;;;;;;;;;;;;;;23.85;39.82;98886.09;5384313;26;20260;-80
2024/04/16 06:40:50;;;;;;;;;;;;;;;23.90;39.29;98886.84;5410788;26;19929;-79
2024/04/16 06:43:16;;;;;;;;;;;;;;;23.96;39.54;98884.94;5411981;26;20002;-80
2024/04/16 06:45:41;;;;;;;;;;;;;;;24.02;38.90;98870.31;5403894;26;19929;-78
2024/04/16 06:48:07;;;;;;;;;;;;;;;24.09;39.40;98868.91;5383866;26;19929;-81
2024/04/16 06:50:32;;;;;;;;;;;;;;;24.15;39.40;98858.88;5396179;26;20017;-79
2024/04/16 06:52:57;;;;;;;;;;;;;;;24.24;38.95;98854.47;5419562;26;20002;-81
2024/04/16 06:55:23;;;;;;;;;;;;;;;24.36;38.55;98860.31;5406109;26;19929;-79
2024/04/16 06:57:48;;;;;;;;;;;;;;;24.48;38.52;98857.25;5416838;26;19937;-79
2024/04/16 07:00:13;;;;;;;;;;;;;;;24.59;38.11;98849.88;5397577;26;19933;-79
2024/04/16 07:02:39;;;;;;;;;;;;;;;24.65;38.78;98846.03;5414401;26;19974;-79
2024/04/16 07:05:05;;;;;;;;;;;;;;;24.78;38.39;98849.94;5419039;26;20312;-80
2024/04/16 07:07:30;;;;;;;;;;;;;;;24.92;38.22;98848.13;5415853;26;19933;-80
2024/04/16 07:09:55;;;;;;;;;;;;;;;25.04;37.56;98848.56;5407522;26;19929;-80
2024/04/16 07:12:21;;;;;;;;;;;;;;;25.13;37.84;98844.13;5383771;26;19929;-80
2024/04/16 07:14:46;;;;;;;;;;;;;;;25.22;37.28;98839.66;5394942;26;19935;-79
2024/04/16 07:17:11;;;;;;;;;;;;;;;25.26;37.55;98846.09;5419009;26;19928;-80
2024/04/16 07:19:37;;;;;;;;;;;;;;;25.34;37.05;98831.16;5447332;26;19947;-80
2024/04/16 07:22:02;;;;;;;;;;;;;;;25.44;36.78;98836.41;5446640;26;19936;-78
2024/04/16 07:24:27;;;;;;;;;;;;;;;25.50;36.56;98834.44;5418963;26;19935;-79
2024/04/16 07:26:52;;;;;;;;;;;;;;;25.60;36.54;98829.69;5419311;26;20362;-80
2024/04/16 07:29:18;;;;;;;;;;;;;;;25.67;36.10;98828.53;5417974;26;19929;-79
2024/04/16 07:31:43;;;;;;;;;;;;;;;25.75;35.76;98825.16;5418662;26;19929;-78
2024/04/16 07:34:08;;;;;;;;;;;;;;;25.75;35.61;98827.88;5416294;26;20328;-80
2024/04/16 07:36:34;;;;;;;;;;;;;;;25.85;35.58;98825.00;5418700;26;19998;-78
2024/04/16 07:38:59;;;;;;;;;;;;;;;25.93;35.79;98822.44;5415881;26;19929;-79
2024/04/16 07:41:25;;;;;;;;;;;;;;;26.05;35.43;98823.91;5440556;26;20251;-80
2024/04/16 07:43:50;;;;;;;;;;;;;;;26.12;35.19;98821.59;5417253;26;19937;-79
2024/04/16 07:46:15;;;;;;;;;;;;;;;26.15;33.87;98823.72;5416635;26;19998;-79
2024/04/16 07:48:40;;;;;;;;;;;;;;;26.23;33.70;98823.84;5410786;26;19975;-82
2024/04/16 07:51:06;;;;;;;;;;;;;;;26.33;33.79;98822.88;5404182;26;20374;-80
2024/04/16 07:53:32;;;;;;;;;;;;;;;26.41;33.64;98822.19;5416155;26;19941;-80
2024/04/16 07:55:57;;;;;;;;;;;;;;;26.49;33.94;98824.19;5446325;26;19964;-79
2024/04/16 07:58:22;;;;;;;;;;;;;;;26.55;33.80;98824.91;5413985;26;20367;-79
2024/04/16 08:00:49;;;;;;;;;;;;;;;26.58;33.08;98822.41;5415447;26;20367;-80
2024/04/16 08:03:15;;;;;;;;;;;;;;;26.67;32.79;98829.81;5401737;26;19936;-80
2024/04/16 08:05:40;;;;;;;;;;;;;;;26.77;32.78;98821.53;5418951;26;20274;-79
2024/04/16 08:08:05;;;;;;;;;;;;;;;26.82;31.82;98833.06;5417071;26;19936;-78
2024/04/16 08:10:31;;;;;;;;;;;;;;;26.71;33.17;98803.72;5415456;26;19998;-79
2024/04/16 08:12:56;;;;;;;;;;;;;;;26.88;32.75;98831.03;5446642;26;19929;-80
2024/04/16 08:15:21;;;;;;;;;;;;;;;26.90;31.67;98839.66;5409713;26;20305;-79
2024/04/16 08:17:47;;;;;;;;;;;;;;;26.97;33.12;98836.56;5413480;26;19996;-80
2024/04/16 08:20:12;;;;;;;;;;;;;;;27.00;32.39;98833.25;5413838;26;19937;-79
2024/04/16 08:22:38;;;;;;;;;;;;;;;27.00;32.00;98828.66;5409476;26;20024;-80
2024/04/16 08:25:03;;;;;;;;;;;;;;;27.07;31.60;98820.91;5414600;26;20270;-79
2024/04/16 08:27:30;;;;;;;;;;;;;;;27.15;31.15;98820.19;5403953;26;19929;-78
2024/04/16 08:29:56;;;;;;;;;;;;;;;27.27;31.67;98827.00;5403400;26;19936;-80
2024/04/16 08:32:21;;;;;;;;;;;;;;;27.27;29.91;98825.09;5416148;26;19929;-80
2024/04/16 08:34:46;;;;;;;;;;;;;;;27.35;30.23;98826.28;5415890;26;20183;-80
2024/04/16 08:37:11;;;;;;;;;;;;;;;27.52;30.64;98815.59;5404809;26;19929;-79
2024/04/16 08:39:37;;;;;;;;;;;;;;;27.71;30.80;98821.69;5413820;26;19937;-78
2024/04/16 08:42:03;;;;;;;;;;;;;;;27.78;30.63;98823.97;5410941;26;19936;-80
2024/04/16 08:44:29;;;;;;;;;;;;;;;27.87;30.93;98821.31;5401090;26;19937;-80
2024/04/16 08:46:56;;;;;;;;;;;;;;;27.97;31.06;98812.91;5410093;26;20390;-80
2024/04/16 08:49:23;;;;;;;;;;;;;;;27.98;29.56;98814.50;5403508;26;19943;-78
2024/04/16 08:51:49;;;;;;;;;;;;;;;27.99;30.37;98816.91;5406149;26;19961;-79
2024/04/16 08:54:16;;;;;;;;;;;;;;;28.02;29.92;98808.16;5380057;26;19958;-79
2024/04/16 08:56:42;;;;;;;;;;;;;;;28.12;30.72;98813.31;5384932;26;20330;-79
2024/04/16 08:59:07;;;;;;;;;;;;;;;28.31;29.23;98807.72;5408546;26;19945;-78
2024/04/16 09:01:35;;;;;;;;;;;;;;;28.37;29.58;98801.03;5409472;26;20247;-79
2024/04/16 09:04:00;;;;;;;;;;;;;;;28.35;30.18;98797.03;5406788;26;19928;-79
2024/04/16 09:06:26;;;;;;;;;;;;;;;28.32;28.81;98798.47;5404305;26;19994;-79
2024/04/16 09:08:52;;;;;;;;;;;;;;;28.31;29.12;98796.06;5417824;26;19929;-80
2024/04/16 09:11:18;;;;;;;;;;;;;;;28.34;29.29;98798.16;5408534;26;20339;-80
2024/04/16 09:13:43;;;;;;;;;;;;;;;28.30;29.15;98795.25;5410793;26;19929;-79
2024/04/16 09:16:09;;;;;;;;;;;;;;;28.30;29.52;98795.25;5414396;26;19941;-80
2024/04/16 09:18:34;;;;;;;;;;;;;;;28.29;29.71;98796.38;5412431;26;19936;-80
2024/04/16 09:21:00;;;;;;;;;;;;;;;28.26;29.78;98794.28;5397059;26;19965;-78
2024/04/16 09:23:25;;;;;;;;;;;;;;;28.34;29.99;98781.88;5379743;26;19929;-78
2024/04/16 09:25:50;;;;;;;;;;;;;;;28.51;29.57;98779.22;5390133;26;19929;-80
2024/04/16 09:28:17;;;;;;;;;;;;;;;28.65;28.77;98773.66;5414782;26;19929;-78
2024/04/16 09:30:53;;;;;;;;;;;;;;;28.77;29.23;98761.06;5411981;26;19929;-79
2024/04/16 09:33:19;;;;;;;;;;;;;;;28.94;29.00;98767.66;5405863;26;19970;-79
2024/04/16 09:35:44;;;;;;;;;;;;;;;29.04;28.01;98754.59;5398435;26;19933;-80
2024/04/16 09:38:09;;;;;;;;;;;;;;;29.37;27.46;98756.84;5408400;26;20359;-79
2024/04/16 09:40:35;;;;;;;;;;;;;;;29.63;27.83;98743.25;5412484;26;19929;-78
2024/04/16 09:43:02;;;;;;;;;;;;;;;29.73;26.96;98727.41;5414631;26;20435;-80
2024/04/16 09:45:28;;;;;;;;;;;;;;;29.92;27.20;98723.50;5388872;26;19949;-79
2024/04/16 09:47:54;;;;;;;;;;;;;;;30.11;26.26;98723.16;5388275;26;19934;-78
2024/04/16 09:50:20;;;;;;;;;;;;;;;30.33;27.06;98717.44;5413112;26;19933;-79
2024/04/16 09:52:53;;;;;;;;;;;;;;;30.46;27.04;98708.22;5415073;26;19975;-79
2024/04/16 09:55:19;;;;;;;;;;;;;;;30.60;26.19;98705.31;5413198;26;19929;-80
2024/04/16 09:57:46;;;;;;;;;;;;;;;30.72;25.21;98708.13;5416381;26;19936;-77
2024/04/16 10:00:12;;;;;;;;;;;;;;;30.79;26.43;98704.88;5382697;26;19941;-79
2024/04/16 10:02:38;;;;;;;;;;;;;;;30.92;25.94;98701.88;5413540;26;20002;-80
2024/04/16 10:05:04;;;;;;;;;;;;;;;30.97;25.20;98701.69;5408611;26;19948;-80
2024/04/16 10:07:30;;;;;;;;;;;;;;;30.91;25.92;98699.50;5380407;26;20316;-80
2024/04/16 10:09:55;;;;;;;;;;;;;;;30.80;26.03;98682.75;5378619;26;20327;-77
2024/04/16 10:12:21;;;;;;;;;;;;;;;30.89;25.47;98672.56;5400736;26;19929;-78
2024/04/16 10:14:47;;;;;;;;;;;;;;;31.02;25.66;98669.91;5412881;26;19945;-78
2024/04/16 10:17:13;;;;;;;;;;;;;;;31.11;25.25;98665.97;5415607;26;20002;-79
2024/04/16 10:19:38;;;;;;;;;;;;;;;31.26;23.78;98659.16;5414857;26;19936;-78
2024/04/16 10:22:11;;;;;;;;;;;;;;;31.43;24.84;98667.16;5431235;26;19929;-80
2024/04/16 10:24:36;;;;;;;;;;;;;;;31.71;25.66;98667.34;5405755;26;19940;-80
2024/04/16 10:27:01;;;;;;;;;;;;;;;32.01;22.93;98654.31;5416765;26;19933;-77
2024/04/16 10:29:27;;;;;;;;;;;;;;;32.15;24.94;98657.50;5413286;26;19929;-80
2024/04/16 10:31:53;;;;;;;;;;;;;;;32.17;24.37;98663.44;5428607;26;19930;-80
2024/04/16 10:34:23;;;;;;;;;;;;;;;32.12;24.89;98660.13;5406887;26;19936;-79
2024/04/16 10:36:50;;;;;;;;;;;;;;;32.16;24.06;98664.56;5419205;26;20370;-79
2024/04/16 10:39:16;;;;;;;;;;;;;;;32.23;24.70;98650.34;5388601;26;20355;-78
2024/04/16 10:41:54;;;;;;;;;;;;;;;32.28;24.62;98652.88;5415799;26;19936;-80
2024/04/16 10:44:20;;;;;;;;;;;;;;;32.21;23.42;98641.69;5393386;26;19929;-79
2024/04/16 10:46:47;;;;;;;;;;;;;;;32.07;24.73;98649.44;5382193;26;19980;-77
2024/04/16 10:49:12;;;;;;;;;;;;;;;31.84;24.36;98646.31;5406845;26;19929;-79
2024/04/16 10:51:37;;;;;;;;;;;;;;;31.73;24.60;98642.44;5445650;26;19929;-79
2024/04/16 10:54:12;;;;;;;;;;;;;;;31.59;24.68;98638.09;5409952;26;20057;-79
2024/04/16 10:56:37;;;;;;;;;;;;;;;31.74;23.37;98638.59;5419231;26;19929;-79
2024/04/16 10:59:06;;;;;;;;;;;;;;;31.89;23.39;98621.53;5419877;26;19929;-79
2024/04/16 11:01:32;;;;;;;;;;;;;;;32.08;24.33;98613.59;5412575;26;19929;-79
2024/04/16 11:04:04;;;;;;;;;;;;;;;32.13;24.43;98596.97;5414612;26;19936;-80
2024/04/16 11:06:30;;;;;;;;;;;;;;;32.27;23.15;98602.09;5415496;26;19935;-79
2024/04/16 11:08:55;;;;;;;;;;;;;;;32.29;22.68;98599.03;5407305;26;19929;-78
2024/04/16 11:11:22;;;;;;;;;;;;;;;32.47;23.19;98600.34;5418922;26;19929;-79
2024/04/16 11:13:48;;;;;;;;;;;;;;;32.72;22.88;98601.09;5419211;26;19936;-78
2024/04/16 11:16:13;;;;;;;;;;;;;;;32.87;22.50;98608.59;5414425;26;19929;-78
2024/04/16 11:18:38;;;;;;;;;;;;;;;33.03;23.72;98608.63;5400549;26;20379;-78
2024/04/16 11:21:04;;;;;;;;;;;;;;;33.14;23.05;98601.50;5407149;26;19933;-80
2024/04/16 11:23:29;;;;;;;;;;;;;;;33.13;22.21;98606.19;5408825;26;19936;-79
2024/04/16 11:25:54;;;;;;;;;;;;;;;32.87;23.58;98608.59;5411017;26;19941;-79
2024/04/16 11:28:20;;;;;;;;;;;;;;;32.64;24.43;98599.28;5401986;26;19936;-79
2024/04/16 11:30:55;;;;;;;;;;;;;;;32.45;24.68;98611.63;5429384;26;19928;-79
2024/04/16 11:33:21;;;;;;;;;;;;;;;31.98;25.08;98613.25;5383414;26;20270;-79
2024/04/16 11:35:46;;;;;;;;;;;;;;;31.64;25.74;98608.97;5383385;26;20271;-79
2024/04/16 11:38:11;;;;;;;;;;;;;;;31.54;25.58;98607.50;5411394;26;19961;-80
2024/04/16 11:40:37;;;;;;;;;;;;;;;31.74;25.49;98605.84;5381521;26;20014;-80
2024/04/16 11:43:03;;;;;;;;;;;;;;;31.78;25.46;98606.75;5383289;26;19934;-78
2024/04/16 11:45:29;;;;;;;;;;;;;;;31.77;26.00;98607.88;5399991;26;19940;-79
2024/04/16 11:47:54;;;;;;;;;;;;;;;31.83;26.19;98603.78;5417193;26;20270;-80
2024/04/16 11:50:19;;;;;;;;;;;;;;;32.01;25.62;98598.91;5398419;26;19929;-80
2024/04/16 11:52:45;;;;;;;;;;;;;;;32.14;25.92;98606.75;5399357;26;19929;-78
2024/04/16 11:55:10;;;;;;;;;;;;;;;32.03;25.32;98607.56;5403988;26;19936;-79
2024/04/16 11:57:35;;;;;;;;;;;;;;;31.84;25.48;98600.72;5406639;26;19929;-77
2024/04/16 12:00:01;;;;;;;;;;;;;;;31.78;26.20;98595.81;5416493;26;19936;-80
2024/04/16 12:02:26;;;;;;;;;;;;;;;31.83;25.93;98585.47;5415140;26;19998;-78
2024/04/16 12:04:51;;;;;;;;;;;;;;;32.11;25.87;98579.34;5413636;26;19937;-78
2024/04/16 12:07:16;;;;;;;;;;;;;;;32.20;26.23;98575.34;5416098;26;19933;-78
2024/04/16 12:09:42;;;;;;;;;;;;;;;32.14;25.87;98575.91;5402083;26;19929;-79
2024/04/16 12:12:07;;;;;;;;;;;;;;;31.91;25.35;98568.19;5403951;26;19935;-79
2024/04/16 12:14:32;;;;;;;;;;;;;;;31.80;25.63;98558.84;5402469;26;19937;-78
2024/04/16 12:16:57;;;;;;;;;;;;;;;31.69;25.55;98545.97;5382692;26;20343;-77
2024/04/16 12:19:23;;;;;;;;;;;;;;;31.53;25.18;98552.13;5403520;26;19929;-78
2024/04/16 12:21:48;;;;;;;;;;;;;;;31.42;25.88;98550.97;5382424;26;20317;-79
2024/04/16 12:24:13;;;;;;;;;;;;;;;31.40;26.73;98549.72;5410429;26;19930;-80
2024/04/16 12:26:40;;;;;;;;;;;;;;;31.35;27.66;98545.28;5407780;26;20468;-79
2024/04/16 12:29:06;;;;;;;;;;;;;;;31.17;27.27;98544.66;5412958;26;19929;-79
2024/04/16 12:31:31;;;;;;;;;;;;;;;31.16;27.84;98542.28;5412461;26;20367;-78
2024/04/16 12:34:00;;;;;;;;;;;;;;;31.08;27.47;98543.13;5415439;26;19929;-78
2024/04/16 12:36:25;;;;;;;;;;;;;;;30.86;28.51;98531.50;5416253;26;19940;-79
2024/04/16 12:38:50;;;;;;;;;;;;;;;30.94;27.27;98525.16;5412007;26;20355;-80
2024/04/16 12:41:16;;;;;;;;;;;;;;;31.15;26.97;98543.41;5409385;26;19937;-79